Mamfe, Cameroon
Current Conditions -  °F | °C
As of 3:00 PM on Sunday 23 Nov 2014 (Local Time) from FKKD Reporting Station
Scattered Clouds Scattered Clouds  
Wind Chill: 90°   Ceiling: Unl
Heat Index: 105°   Visibility: 6mi
Dew Point: 79°   Wind: 7mph
Humidity: 70%   Direction: 220°SW
Pressure: 29.77"   Gusts: NA
Location:  5.77°N, 9.29°E
Report Text: FKKD 231400Z 22006KT 9999 SCT020 FEW023CB 32/26 Q1008 NOSIG
Loading
Personal Weather Stations






























Interactive Weather Map New forecast layout! Learn more

10-Day Weather Forecast

Advertisements
Track Severe Weather on mobile